Time;durP1;ratioP1;P1;durP2;ratioP2;P2;SDS_P1;SDS_P2;PMS_P1;PMS_P2;Temp;Humidity;BMP_temperature;BMP_pressure;BME280_temperature;BME280_humidity;BME280_pressure;Samples;Min_cycle;Max_cycle;Signal;HPM_P1;HPM_P2
2021/07/01 00:01:53;;;;;;;4.07;3.77;;;18.70;99.90;;;;;;5098668;28;20637;-61
2021/07/01 00:04:21;;;;;;;7.07;3.37;;;18.80;99.90;;;;;;5098216;28;20451;-61
2021/07/01 00:06:48;;;;;;;3.73;2.83;;;18.80;99.90;;;;;;5094034;28;20421;-61
2021/07/01 00:09:18;;;;;;;2.80;2.60;;;18.70;99.90;;;;;;5092035;28;20532;-62
2021/07/01 00:11:47;;;;;;;8.50;3.63;;;18.60;99.90;;;;;;5097200;28;20462;-61
2021/07/01 00:14:18;;;;;;;3.30;3.00;;;18.40;99.90;;;;;;5100427;28;20633;-61
2021/07/01 00:16:50;;;;;;;4.57;4.17;;;18.50;99.90;;;;;;5094959;28;20420;-61
2021/07/01 00:19:17;;;;;;;3.63;3.33;;;18.50;99.90;;;;;;5096513;28;20433;-60
2021/07/01 00:21:45;;;;;;;2.80;2.70;;;18.40;99.90;;;;;;5100008;28;20449;-62
2021/07/01 00:24:12;;;;;;;3.00;2.23;;;18.40;99.90;;;;;;5094861;28;20445;-62
2021/07/01 00:26:39;;;;;;;2.90;2.70;;;18.50;99.90;;;;;;5080147;28;20431;-60
2021/07/01 00:29:06;;;;;;;3.60;2.90;;;18.60;99.90;;;;;;5097843;28;20457;-61
2021/07/01 00:31:33;;;;;;;2.80;2.60;;;18.80;99.90;;;;;;5097356;28;20433;-61
2021/07/01 00:34:01;;;;;;;3.40;2.80;;;18.90;99.90;;;;;;5097898;28;20418;-61
2021/07/01 00:36:28;;;;;;;2.67;2.47;;;19.00;99.90;;;;;;5099937;28;20801;-62
2021/07/01 00:38:56;;;;;;;3.10;2.90;;;19.20;99.90;;;;;;5101310;28;20422;-62
2021/07/01 00:41:23;;;;;;;7.90;2.87;;;19.20;99.90;;;;;;5097698;28;20658;-61
2021/07/01 00:43:50;;;;;;;3.33;2.73;;;19.20;99.90;;;;;;5102504;28;20518;-61
2021/07/01 00:46:18;;;;;;;3.70;3.40;;;19.20;99.90;;;;;;5079337;28;20486;-60
2021/07/01 00:48:45;;;;;;;2.93;2.63;;;19.30;99.90;;;;;;5097597;28;20960;-60
2021/07/01 00:51:12;;;;;;;3.13;2.90;;;19.30;99.90;;;;;;5097546;28;20669;-60
2021/07/01 00:53:40;;;;;;;3.13;2.93;;;19.30;99.90;;;;;;5097133;28;20442;-60
2021/07/01 00:56:09;;;;;;;3.30;3.00;;;19.20;99.90;;;;;;5097801;28;20457;-61
2021/07/01 00:58:37;;;;;;;2.57;2.43;;;19.30;99.90;;;;;;5086889;28;20531;-61
2021/07/01 01:01:05;;;;;;;2.83;2.57;;;19.20;99.90;;;;;;5097552;28;20490;-62
2021/07/01 01:03:35;;;;;;;2.70;2.57;;;19.00;99.90;;;;;;5105417;28;20769;-61
2021/07/01 01:06:05;;;;;;;2.87;2.67;;;18.90;99.90;;;;;;5102047;28;20421;-61
2021/07/01 01:08:32;;;;;;;2.97;2.77;;;18.80;99.90;;;;;;5103618;28;20555;-60
2021/07/01 01:10:59;;;;;;;2.97;2.40;;;18.70;99.90;;;;;;5092779;28;20438;-61
2021/07/01 01:13:27;;;;;;;3.73;2.50;;;18.70;99.90;;;;;;5098523;28;20764;-60
2021/07/01 01:15:56;;;;;;;2.30;2.20;;;18.80;99.90;;;;;;5102440;28;20418;-60
2021/07/01 01:18:24;;;;;;;2.87;2.60;;;18.90;99.90;;;;;;5105873;28;20458;-63
2021/07/01 01:20:52;;;;;;;2.83;2.63;;;18.90;99.90;;;;;;5096095;28;20424;-61
2021/07/01 01:23:20;;;;;;;3.30;3.10;;;18.70;99.90;;;;;;5097151;28;20810;-61
2021/07/01 01:25:49;;;;;;;3.10;2.73;;;18.80;99.90;;;;;;5082804;28;20729;-62
2021/07/01 01:28:17;;;;;;;3.47;3.17;;;18.80;99.90;;;;;;5087818;28;20442;-61
2021/07/01 01:30:45;;;;;;;5.90;2.80;;;18.90;99.90;;;;;;5096410;28;20502;-61
2021/07/01 01:33:12;;;;;;;3.03;2.77;;;18.70;99.90;;;;;;5088451;28;20506;-60
2021/07/01 01:35:40;;;;;;;3.97;3.00;;;18.60;99.90;;;;;;5097039;28;20412;-60
2021/07/01 01:38:12;;;;;;;2.53;2.33;;;18.60;99.90;;;;;;5097668;28;20439;-61
2021/07/01 01:40:41;;;;;;;2.60;2.50;;;18.60;99.90;;;;;;5100486;28;20469;-60
2021/07/01 01:43:08;;;;;;;3.70;3.40;;;18.60;99.90;;;;;;5097074;28;20449;-62
2021/07/01 01:45:38;;;;;;;3.00;2.80;;;18.50;99.90;;;;;;5091025;28;20425;-60
2021/07/01 01:48:05;;;;;;;3.10;2.90;;;18.50;99.90;;;;;;5087303;28;20419;-60
2021/07/01 01:50:33;;;;;;;2.83;2.63;;;18.50;99.90;;;;;;5096398;28;20642;-60
2021/07/01 01:53:01;;;;;;;3.53;3.00;;;18.50;99.90;;;;;;5099120;28;20435;-61
2021/07/01 01:55:29;;;;;;;3.07;2.77;;;18.30;99.90;;;;;;5096953;28;20485;-60
2021/07/01 01:57:56;;;;;;;3.40;3.10;;;18.20;99.90;;;;;;5091610;28;20499;-61
2021/07/01 02:00:26;;;;;;;4.07;3.10;;;18.20;99.90;;;;;;5095238;28;20502;-60
2021/07/01 02:02:54;;;;;;;3.23;2.90;;;18.10;99.90;;;;;;5096268;28;20469;-60
2021/07/01 02:05:21;;;;;;;3.00;2.80;;;18.20;99.90;;;;;;5087782;28;20420;-60
2021/07/01 02:07:49;;;;;;;3.47;3.17;;;18.20;99.90;;;;;;5096545;28;20503;-61
2021/07/01 02:10:22;;;;;;;3.03;2.83;;;18.10;99.90;;;;;;5096907;28;20485;-60
2021/07/01 02:12:49;;;;;;;5.90;3.20;;;18.10;99.90;;;;;;5095982;28;20425;-60
2021/07/01 02:15:20;;;;;;;5.20;3.23;;;18.00;99.90;;;;;;5095115;28;20437;-60
2021/07/01 02:17:48;;;;;;;5.20;4.50;;;18.00;99.90;;;;;;5095402;28;20464;-60
2021/07/01 02:20:19;;;;;;;2.87;2.67;;;17.90;99.90;;;;;;5096585;28;20539;-60
2021/07/01 02:22:47;;;;;;;2.83;2.63;;;17.90;99.90;;;;;;5099737;28;20464;-60
2021/07/01 02:25:15;;;;;;;3.70;3.50;;;18.00;99.90;;;;;;5097232;28;20449;-60
2021/07/01 02:27:43;;;;;;;3.63;3.37;;;18.00;99.90;;;;;;5091762;28;20445;-60
2021/07/01 02:30:13;;;;;;;4.30;2.80;;;18.10;99.90;;;;;;5095943;28;20549;-60
2021/07/01 02:32:40;;;;;;;3.70;3.40;;;18.00;99.90;;;;;;5096337;28;20425;-60
2021/07/01 02:35:27;;;;;;;3.43;3.23;;;18.00;99.90;;;;;;5098371;28;20419;-60
2021/07/01 02:37:54;;;;;;;2.80;2.60;;;18.00;99.90;;;;;;5095471;28;20764;-60
2021/07/01 02:40:22;;;;;;;12.20;3.47;;;17.90;99.90;;;;;;5095833;28;20427;-61
2021/07/01 02:42:49;;;;;;;3.03;2.80;;;17.70;99.90;;;;;;5096244;28;20419;-60
2021/07/01 02:45:16;;;;;;;4.23;3.40;;;17.80;99.90;;;;;;5105546;28;20419;-60
2021/07/01 02:47:43;;;;;;;2.70;2.50;;;17.90;99.90;;;;;;5100020;28;20907;-60
2021/07/01 02:50:11;;;;;;;3.10;2.90;;;18.00;99.90;;;;;;5095803;28;20449;-61
2021/07/01 02:52:38;;;;;;;2.63;2.53;;;18.00;99.90;;;;;;5096063;28;20496;-61
2021/07/01 02:55:07;;;;;;;4.10;2.87;;;18.00;99.90;;;;;;5102038;28;20624;-61
2021/07/01 02:57:35;;;;;;;2.90;2.70;;;18.10;99.90;;;;;;5095810;28;20457;-60
2021/07/01 03:00:15;;;;;;;5.43;2.70;;;18.00;99.90;;;;;;5098619;28;20465;-60
2021/07/01 03:02:43;;;;;;;2.90;2.80;;;18.10;99.90;;;;;;5099984;28;20496;-61
2021/07/01 03:05:10;;;;;;;4.40;3.37;;;18.30;99.90;;;;;;5110884;28;20448;-60
2021/07/01 03:07:38;;;;;;;3.33;3.03;;;18.40;99.90;;;;;;5097507;28;20482;-60
2021/07/01 03:10:06;;;;;;;2.37;2.27;;;18.60;99.90;;;;;;5095547;28;20494;-60
2021/07/01 03:12:33;;;;;;;3.20;2.47;;;18.70;99.90;;;;;;5098547;28;20425;-60
2021/07/01 03:15:00;;;;;;;4.03;2.87;;;18.70;99.90;;;;;;5090035;28;20675;-61
2021/07/01 03:17:27;;;;;;;3.07;2.30;;;18.80;99.90;;;;;;5090079;28;20420;-61
2021/07/01 03:19:54;;;;;;;8.37;2.87;;;18.80;99.90;;;;;;5090885;28;20418;-61
2021/07/01 03:22:21;;;;;;;4.40;4.00;;;18.80;99.90;;;;;;5103734;28;20416;-62
2021/07/01 03:24:48;;;;;;;3.63;3.33;;;18.80;99.90;;;;;;5098427;28;20479;-61
2021/07/01 03:27:15;;;;;;;3.87;3.57;;;18.70;99.90;;;;;;5106915;28;20439;-62
2021/07/01 03:29:42;;;;;;;7.57;4.03;;;18.80;99.90;;;;;;5119030;28;20463;-61
2021/07/01 03:32:09;;;;;;;4.20;3.33;;;18.70;99.90;;;;;;5113175;28;20412;-62
2021/07/01 03:34:36;;;;;;;2.90;2.60;;;18.70;99.90;;;;;;5100281;28;20712;-62
2021/07/01 03:37:04;;;;;;;3.63;3.43;;;18.60;99.90;;;;;;5089841;28;20442;-61
2021/07/01 03:39:31;;;;;;;3.60;3.30;;;18.70;99.90;;;;;;5098862;28;20420;-61
2021/07/01 03:41:58;;;;;;;2.73;2.53;;;18.70;99.90;;;;;;5098840;28;20438;-61
2021/07/01 03:44:25;;;;;;;5.13;2.60;;;18.60;99.90;;;;;;5098464;28;20453;-61
2021/07/01 03:46:52;;;;;;;6.10;2.50;;;18.70;99.90;;;;;;5098080;28;20416;-61
2021/07/01 03:49:19;;;;;;;4.60;2.53;;;18.90;99.90;;;;;;5092941;28;20612;-61
2021/07/01 03:51:46;;;;;;;5.60;2.70;;;19.20;99.90;;;;;;5094008;28;20488;-61
2021/07/01 03:54:13;;;;;;;3.83;2.80;;;19.40;99.90;;;;;;5094259;28;20547;-60
2021/07/01 03:56:41;;;;;;;5.50;2.67;;;19.40;99.90;;;;;;5093506;28;20454;-61
2021/07/01 03:59:10;;;;;;;2.70;2.50;;;19.60;99.90;;;;;;5096008;28;20418;-60
2021/07/01 04:01:37;;;;;;;4.50;3.20;;;20.00;99.90;;;;;;5082656;28;20414;-61
2021/07/01 04:04:05;;;;;;;4.70;2.70;;;20.30;99.90;;;;;;5097226;28;20470;-61
2021/07/01 04:06:33;;;;;;;3.63;3.33;;;20.20;99.90;;;;;;5098106;28;20447;-61
2021/07/01 04:09:02;;;;;;;3.77;3.47;;;20.30;99.90;;;;;;5088477;28;20513;-61
2021/07/01 04:11:29;;;;;;;5.07;2.90;;;20.50;99.90;;;;;;5098358;28;20443;-62
2021/07/01 04:13:56;;;;;;;4.17;2.70;;;20.30;99.90;;;;;;5097012;28;20516;-62
2021/07/01 04:16:23;;;;;;;4.00;3.30;;;20.80;99.90;;;;;;5098248;28;20431;-61
2021/07/01 04:18:50;;;;;;;4.90;3.80;;;20.70;99.90;;;;;;5097555;28;20443;-60
2021/07/01 04:21:17;;;;;;;3.87;2.90;;;20.70;99.90;;;;;;5094494;28;20410;-61
2021/07/01 04:23:44;;;;;;;5.17;3.53;;;20.60;99.90;;;;;;5097748;28;20812;-60
2021/07/01 04:26:13;;;;;;;7.10;4.10;;;20.70;99.90;;;;;;5110877;28;20636;-61
2021/07/01 04:28:42;;;;;;;6.67;2.80;;;20.80;99.90;;;;;;5097854;28;20760;-61
2021/07/01 04:31:10;;;;;;;3.27;2.60;;;20.80;99.90;;;;;;5108993;28;20869;-62
2021/07/01 04:33:37;;;;;;;3.13;2.87;;;20.90;99.90;;;;;;5103133;28;20736;-61
2021/07/01 04:36:04;;;;;;;2.27;2.13;;;20.70;99.90;;;;;;5108098;28;20496;-62
2021/07/01 04:38:31;;;;;;;3.23;2.67;;;20.60;99.90;;;;;;5107678;28;20412;-60
2021/07/01 04:40:58;;;;;;;8.90;2.63;;;20.30;99.90;;;;;;5097992;28;20413;-61
2021/07/01 04:43:25;;;;;;;3.10;2.90;;;20.20;99.90;;;;;;5111068;28;20416;-61
2021/07/01 04:45:52;;;;;;;2.83;2.43;;;20.10;99.90;;;;;;5097004;28;20410;-60
2021/07/01 04:48:19;;;;;;;2.60;2.40;;;20.10;99.90;;;;;;5096940;28;20420;-60
2021/07/01 04:50:46;;;;;;;3.77;2.50;;;20.10;99.90;;;;;;5103914;28;20474;-63
2021/07/01 04:53:13;;;;;;;4.77;3.17;;;20.10;99.90;;;;;;5104041;28;20467;-61
2021/07/01 04:55:41;;;;;;;3.50;3.20;;;20.10;99.90;;;;;;5097258;28;20423;-61
2021/07/01 04:58:08;;;;;;;3.43;2.70;;;20.20;99.90;;;;;;5103618;28;20668;-62
2021/07/01 05:00:35;;;;;;;4.37;2.80;;;20.20;99.90;;;;;;5098935;28;20821;-61
2021/07/01 05:03:03;;;;;;;2.57;2.37;;;20.40;99.90;;;;;;5097062;28;20417;-61
2021/07/01 05:05:30;;;;;;;4.03;3.33;;;20.30;99.90;;;;;;5098759;28;20450;-61
2021/07/01 05:07:57;;;;;;;2.50;2.30;;;20.40;99.90;;;;;;5096545;28;20454;-62
2021/07/01 05:10:24;;;;;;;3.47;2.83;;;20.40;99.90;;;;;;5088196;28;20813;-62
2021/07/01 05:12:51;;;;;;;7.57;2.60;;;20.60;99.90;;;;;;5096754;28;20439;-61
2021/07/01 05:15:18;;;;;;;2.60;2.40;;;20.90;99.90;;;;;;5096482;28;20762;-62
2021/07/01 05:17:45;;;;;;;2.73;2.60;;;21.00;99.90;;;;;;5097767;28;20417;-61
2021/07/01 05:20:13;;;;;;;4.30;3.50;;;21.00;99.90;;;;;;5096152;28;20430;-62
2021/07/01 05:22:40;;;;;;;2.30;2.20;;;21.00;99.90;;;;;;5105071;28;20483;-61
2021/07/01 05:25:07;;;;;;;1.97;1.87;;;20.90;99.90;;;;;;5107648;28;20409;-61
2021/07/01 05:27:35;;;;;;;3.20;2.63;;;20.70;99.90;;;;;;5107427;28;20421;-62
2021/07/01 05:30:03;;;;;;;3.33;3.03;;;20.50;99.90;;;;;;5096473;28;20457;-60
2021/07/01 05:32:30;;;;;;;3.27;3.07;;;20.20;99.90;;;;;;5110359;28;20420;-62
2021/07/01 05:34:58;;;;;;;2.90;2.70;;;20.10;99.90;;;;;;5108341;28;20406;-62
2021/07/01 05:37:25;;;;;;;3.10;2.80;;;20.20;99.90;;;;;;5111066;28;20442;-60
2021/07/01 05:39:52;;;;;;;3.13;2.57;;;20.30;99.90;;;;;;5116038;28;20446;-61
2021/07/01 05:42:19;;;;;;;2.70;2.60;;;20.40;99.90;;;;;;5107130;28;20727;-61
2021/07/01 05:44:47;;;;;;;3.20;3.00;;;20.40;99.90;;;;;;5102457;28;20850;-61
2021/07/01 05:47:14;;;;;;;3.83;3.57;;;20.30;99.90;;;;;;5102520;28;20449;-61
2021/07/01 05:49:41;;;;;;;3.00;2.77;;;20.30;99.90;;;;;;5108858;28;20526;-62
2021/07/01 05:52:09;;;;;;;3.13;2.93;;;20.30;99.90;;;;;;5104213;28;20412;-60
2021/07/01 05:54:40;;;;;;;2.70;2.60;;;20.20;99.90;;;;;;5104926;28;20529;-61
2021/07/01 05:57:07;;;;;;;3.00;2.80;;;20.00;99.90;;;;;;5100645;28;20467;-61
2021/07/01 05:59:34;;;;;;;4.73;4.10;;;20.10;99.90;;;;;;5071124;28;20463;-61
2021/07/01 06:02:03;;;;;;;2.60;2.50;;;20.30;99.90;;;;;;5087658;28;20478;-61
2021/07/01 06:04:34;;;;;;;3.83;2.73;;;20.50;99.90;;;;;;5110227;28;20505;-62
2021/07/01 06:07:01;;;;;;;4.23;3.30;;;20.60;99.90;;;;;;5107765;28;20523;-61
2021/07/01 06:09:29;;;;;;;8.60;3.10;;;20.50;99.90;;;;;;5109598;28;20588;-61
2021/07/01 06:12:00;;;;;;;3.40;3.10;;;20.80;99.90;;;;;;5108887;28;20443;-62
2021/07/01 06:14:28;;;;;;;3.10;2.90;;;21.00;99.90;;;;;;5103668;28;20523;-62
2021/07/01 06:17:03;;;;;;;3.83;3.63;;;20.80;99.90;;;;;;5111050;28;20438;-61
2021/07/01 06:19:31;;;;;;;6.00;2.80;;;21.50;99.90;;;;;;5109435;28;20464;-61
2021/07/01 06:22:04;;;;;;;3.27;3.07;;;21.80;99.90;;;;;;5111385;28;20417;-60
2021/07/01 06:24:31;;;;;;;3.83;3.07;;;22.00;99.90;;;;;;5104299;28;20445;-61
2021/07/01 06:27:01;;;;;;;10.93;3.43;;;22.30;99.90;;;;;;5108045;28;20431;-60
2021/07/01 06:29:29;;;;;;;5.00;3.40;;;22.60;99.90;;;;;;5111852;28;20447;-61
2021/07/01 06:31:56;;;;;;;2.70;2.60;;;22.80;99.90;;;;;;5112648;28;20437;-61
2021/07/01 06:34:26;;;;;;;3.20;3.00;;;23.20;99.90;;;;;;5111480;28;20739;-61
2021/07/01 06:37:02;;;;;;;3.80;3.50;;;23.70;99.90;;;;;;5108885;28;20408;-61
2021/07/01 06:39:31;;;;;;;3.80;3.60;;;24.10;99.90;;;;;;5106283;28;20497;-61
2021/07/01 06:42:05;;;;;;;4.07;3.77;;;24.50;99.90;;;;;;5106100;28;20441;-62
2021/07/01 06:44:42;;;;;;;4.30;4.00;;;25.40;99.90;;;;;;5108587;28;20472;-60
2021/07/01 06:47:14;;;;;;;3.87;3.67;;;25.80;99.90;;;;;;5110184;28;20410;-62
2021/07/01 06:49:44;;;;;;;7.20;4.93;;;26.00;99.90;;;;;;5105270;28;20492;-61
2021/07/01 06:52:14;;;;;;;4.93;4.40;;;26.00;99.90;;;;;;5111980;28;20481;-61
2021/07/01 06:54:41;;;;;;;5.63;5.33;;;27.20;99.40;;;;;;5111348;28;20504;-62
2021/07/01 06:57:09;;;;;;;5.47;5.27;;;29.50;95.10;;;;;;5110468;28;20445;-60
2021/07/01 06:59:40;;;;;;;6.27;5.20;;;31.00;91.70;;;;;;5113687;28;20458;-61
2021/07/01 07:02:13;;;;;;;5.67;5.37;;;30.50;90.50;;;;;;5111222;28;20442;-61
2021/07/01 07:04:41;;;;;;;5.90;5.70;;;30.10;90.70;;;;;;5113282;28;20443;-62
2021/07/01 07:07:08;;;;;;;6.63;6.33;;;30.60;89.20;;;;;;5117852;28;20438;-62
2021/07/01 07:09:37;;;;;;;5.97;5.77;;;30.90;84.50;;;;;;5115109;28;20472;-60
2021/07/01 07:12:05;;;;;;;6.67;6.40;;;32.60;79.80;;;;;;5116319;28;20459;-61
2021/07/01 07:14:32;;;;;;;11.37;10.87;;;33.70;75.50;;;;;;5110888;28;21032;-60
2021/07/01 07:16:59;;;;;;;7.00;6.70;;;33.80;73.70;;;;;;5113538;28;20449;-60
2021/07/01 07:19:29;;;;;;;7.53;7.13;;;33.00;74.30;;;;;;5112003;28;20488;-61
2021/07/01 07:22:01;;;;;;;7.80;7.30;;;33.20;73.30;;;;;;5114271;28;20504;-62
2021/07/01 07:24:29;;;;;;;7.00;6.80;;;33.40;71.10;;;;;;5114685;28;20437;-61
2021/07/01 07:26:56;;;;;;;7.50;7.10;;;32.70;71.50;;;;;;5106306;28;20442;-61
2021/07/01 07:29:36;;;;;;;6.43;6.23;;;31.20;74.50;;;;;;5112319;28;20444;-61
2021/07/01 07:32:04;;;;;;;6.23;6.03;;;29.50;79.80;;;;;;5111656;28;20684;-61
2021/07/01 07:34:33;;;;;;;6.70;6.50;;;28.40;85.00;;;;;;5116158;28;20451;-61
2021/07/01 07:37:00;;;;;;;6.97;6.57;;;29.00;84.30;;;;;;5117140;28;20748;-60
2021/07/01 07:39:32;;;;;;;8.00;7.60;;;31.80;76.80;;;;;;5113692;28;20463;-61
2021/07/01 07:42:01;;;;;;;6.97;6.67;;;34.80;68.20;;;;;;5105262;28;20477;-61
2021/07/01 07:44:28;;;;;;;7.90;7.50;;;36.60;61.00;;;;;;5112186;28;20445;-61
2021/07/01 07:46:55;;;;;;;8.10;7.80;;;38.20;56.30;;;;;;5111774;28;20454;-61
2021/07/01 07:49:22;;;;;;;8.20;7.90;;;39.20;53.20;;;;;;5109021;28;20940;-61
2021/07/01 07:51:51;;;;;;;7.83;7.53;;;40.50;49.50;;;;;;5112557;28;20478;-61
2021/07/01 07:54:24;;;;;;;8.83;8.53;;;42.00;45.00;;;;;;5115898;28;20556;-60
2021/07/01 07:56:56;;;;;;;8.47;8.17;;;40.80;45.00;;;;;;5109432;28;20982;-61
2021/07/01 07:59:29;;;;;;;8.60;8.30;;;39.70;45.90;;;;;;5109360;28;20769;-62
2021/07/01 08:02:05;;;;;;;8.47;8.17;;;39.30;45.60;;;;;;5112510;28;20450;-61
2021/07/01 08:04:35;;;;;;;9.00;8.40;;;37.00;48.90;;;;;;5110829;28;20442;-61
2021/07/01 08:07:04;;;;;;;7.23;6.93;;;37.90;48.00;;;;;;5114226;28;20446;-62
2021/07/01 08:09:31;;;;;;;9.63;9.03;;;38.30;47.00;;;;;;5114307;28;20474;-61
2021/07/01 08:12:02;;;;;;;8.07;7.80;;;38.90;46.40;;;;;;5116660;28;20478;-61
2021/07/01 08:14:29;;;;;;;8.30;8.00;;;37.50;48.80;;;;;;5103343;28;20440;-60
2021/07/01 08:16:57;;;;;;;7.33;7.03;;;34.60;52.60;;;;;;5112853;28;20761;-60
2021/07/01 08:19:24;;;;;;;8.37;7.97;;;32.20;56.90;;;;;;5108377;28;20505;-61
2021/07/01 08:21:55;;;;;;;7.70;7.40;;;31.80;58.80;;;;;;5112033;28;20457;-61
2021/07/01 08:24:27;;;;;;;8.30;7.80;;;34.30;53.80;;;;;;5109446;28;20450;-60
2021/07/01 08:26:54;;;;;;;8.10;7.60;;;36.00;51.80;;;;;;5108137;28;20726;-61
2021/07/01 08:29:22;;;;;;;7.03;6.73;;;38.20;47.00;;;;;;5109017;28;20443;-61
2021/07/01 08:31:50;;;;;;;7.20;7.00;;;39.10;46.30;;;;;;5112148;28;20482;-60
2021/07/01 08:34:22;;;;;;;7.60;7.30;;;40.70;42.90;;;;;;5113916;28;20435;-62
2021/07/01 08:36:50;;;;;;;9.23;8.50;;;39.70;44.30;;;;;;5112752;28;20446;-61
2021/07/01 08:39:20;;;;;;;7.80;7.60;;;38.00;46.80;;;;;;5116804;28;20830;-61
2021/07/01 08:41:56;;;;;;;7.23;6.93;;;34.80;50.40;;;;;;5109813;28;20623;-61
2021/07/01 08:44:31;;;;;;;8.37;7.87;;;34.70;50.90;;;;;;5105623;28;20446;-60
2021/07/01 08:47:11;;;;;;;6.87;6.67;;;36.50;47.50;;;;;;5109782;28;20483;-60
2021/07/01 08:49:53;;;;;;;7.37;7.07;;;38.00;44.50;;;;;;5109064;28;20425;-61
2021/07/01 08:52:28;;;;;;;7.33;7.03;;;36.90;46.60;;;;;;5114048;28;20831;-60
2021/07/01 08:55:06;;;;;;;6.97;6.73;;;34.70;50.20;;;;;;5114924;28;20430;-62
2021/07/01 08:57:36;;;;;;;7.40;7.10;;;35.10;49.00;;;;;;5112043;28;20856;-62
2021/07/01 09:00:12;;;;;;;7.40;6.77;;;36.10;47.20;;;;;;5107168;28;20465;-61
2021/07/01 09:02:46;;;;;;;7.83;7.53;;;36.10;48.20;;;;;;5110071;28;20442;-61
2021/07/01 09:05:18;;;;;;;7.43;7.13;;;37.50;45.90;;;;;;5109582;28;20430;-63
2021/07/01 09:07:50;;;;;;;8.17;7.87;;;39.40;43.30;;;;;;5108970;28;20717;-60
2021/07/01 09:10:18;;;;;;;8.70;8.10;;;39.60;41.70;;;;;;5112341;28;20667;-60
2021/07/01 09:12:52;;;;;;;7.93;7.70;;;40.80;40.30;;;;;;5114679;28;20843;-61
2021/07/01 09:15:19;;;;;;;7.87;7.57;;;41.00;40.00;;;;;;5093873;28;20812;-62
2021/07/01 09:17:52;;;;;;;7.70;7.50;;;40.80;40.20;;;;;;5107408;28;20478;-63
2021/07/01 09:20:23;;;;;;;7.80;7.20;;;37.70;43.20;;;;;;5112305;28;20426;-61
2021/07/01 09:22:55;;;;;;;7.10;6.90;;;36.10;44.40;;;;;;5112737;28;20444;-61
2021/07/01 09:25:24;;;;;;;7.40;7.10;;;35.40;45.90;;;;;;5111921;28;20442;-62
2021/07/01 09:27:53;;;;;;;8.00;7.30;;;36.30;44.40;;;;;;5115176;28;20442;-62
2021/07/01 09:30:25;;;;;;;7.53;7.33;;;37.90;42.00;;;;;;5113201;28;20465;-61
2021/07/01 09:32:59;;;;;;;7.63;7.30;;;39.20;41.10;;;;;;5115472;28;20505;-61
2021/07/01 09:35:30;;;;;;;7.60;7.40;;;38.20;41.80;;;;;;5114883;28;20442;-62
2021/07/01 09:38:03;;;;;;;8.30;7.90;;;38.60;41.00;;;;;;5116366;28;20479;-63
2021/07/01 09:40:33;;;;;;;7.47;7.17;;;38.30;41.90;;;;;;5113433;28;20450;-62
2021/07/01 09:43:04;;;;;;;7.60;7.20;;;35.90;45.60;;;;;;5075517;28;20807;-61
2021/07/01 09:45:32;;;;;;;7.63;7.27;;;33.60;49.70;;;;;;5108811;28;20469;-61
2021/07/01 09:48:08;;;;;;;7.40;6.97;;;32.10;52.10;;;;;;5107359;28;20438;-62
2021/07/01 09:50:39;;;;;;;7.60;7.30;;;30.40;55.50;;;;;;5096533;28;20444;-63
2021/07/01 09:53:13;;;;;;;6.80;6.30;;;29.00;57.40;;;;;;5104583;28;20511;-61
2021/07/01 09:55:42;;;;;;;6.80;6.50;;;28.00;59.80;;;;;;5097199;28;20447;-63
2021/07/01 09:58:16;;;;;;;6.43;5.93;;;27.60;60.60;;;;;;5089331;28;20522;-61
2021/07/01 10:00:52;;;;;;;6.70;6.40;;;27.70;59.80;;;;;;5105712;28;20455;-62
2021/07/01 10:03:20;;;;;;;6.20;6.00;;;27.90;60.20;;;;;;5114029;28;20984;-64
2021/07/01 10:05:51;;;;;;;6.90;6.50;;;28.10;61.50;;;;;;5105332;28;20457;-61
2021/07/01 10:08:20;;;;;;;5.97;5.67;;;28.10;61.40;;;;;;5087699;28;20573;-61
2021/07/01 10:10:50;;;;;;;6.80;6.50;;;28.10;62.30;;;;;;5090749;28;20449;-62
2021/07/01 10:13:19;;;;;;;6.13;5.83;;;27.80;62.60;;;;;;5090599;28;20439;-61
2021/07/01 10:15:50;;;;;;;6.17;5.87;;;27.80;62.60;;;;;;5100886;28;20473;-62
2021/07/01 10:18:23;;;;;;;6.47;6.17;;;27.90;63.90;;;;;;5096843;28;20531;-61
2021/07/01 10:20:56;;;;;;;5.80;5.60;;;28.00;63.70;;;;;;5095612;28;20442;-61
2021/07/01 10:23:23;;;;;;;5.90;5.60;;;27.90;63.80;;;;;;5095901;28;20435;-60
2021/07/01 10:25:54;;;;;;;5.50;5.30;;;27.80;65.80;;;;;;5096574;28;20461;-61
2021/07/01 10:28:23;;;;;;;5.50;5.20;;;27.70;64.20;;;;;;5104658;28;20442;-61
2021/07/01 10:31:02;;;;;;;5.87;5.60;;;27.40;65.70;;;;;;5109191;28;20801;-61
2021/07/01 10:33:36;;;;;;;6.57;6.27;;;27.40;66.30;;;;;;5104346;28;20462;-61
2021/07/01 10:36:06;;;;;;;5.90;5.60;;;27.70;66.30;;;;;;5100409;28;20479;-60
2021/07/01 10:38:44;;;;;;;8.13;6.00;;;27.80;66.00;;;;;;5105145;28;20788;-60
2021/07/01 10:41:32;;;;;;;6.43;6.03;;;28.10;65.50;;;;;;5107531;28;20513;-61
2021/07/01 10:44:05;;;;;;;5.90;5.70;;;28.40;64.20;;;;;;5100187;28;20427;-62
2021/07/01 10:46:40;;;;;;;6.50;6.00;;;28.40;64.00;;;;;;5112134;28;21053;-61
2021/07/01 10:49:07;;;;;;;5.60;5.40;;;28.50;63.00;;;;;;5096843;28;20675;-62
2021/07/01 10:51:57;;;;;;;6.00;5.80;;;28.60;62.70;;;;;;5111418;28;20507;-62
2021/07/01 10:54:25;;;;;;;6.03;5.73;;;28.80;62.90;;;;;;5111978;28;20667;-62
2021/07/01 10:57:09;;;;;;;6.20;5.90;;;28.80;62.20;;;;;;5093465;28;20622;-61
2021/07/01 11:00:04;;;;;;;5.87;5.67;;;28.70;62.80;;;;;;5106674;28;20458;-62
2021/07/01 11:02:33;;;;;;;6.50;6.20;;;28.20;62.20;;;;;;5104902;28;20458;-62
2021/07/01 11:05:05;;;;;;;5.90;5.60;;;27.80;64.70;;;;;;5109068;28;20442;-62
2021/07/01 11:07:43;;;;;;;7.30;6.90;;;27.50;65.20;;;;;;5098796;28;20444;-62
2021/07/01 11:10:12;;;;;;;5.97;5.57;;;27.30;65.70;;;;;;5093776;28;20873;-63
2021/07/01 11:12:46;;;;;;;6.77;5.80;;;27.40;65.80;;;;;;5093024;28;20485;-61
2021/07/01 11:15:19;;;;;;;5.97;5.57;;;27.40;65.40;;;;;;5113169;28;20434;-61
2021/07/01 11:17:46;;;;;;;5.47;5.27;;;27.40;65.30;;;;;;5109090;28;20459;-61
2021/07/01 11:20:16;;;;;;;6.17;5.87;;;27.30;65.50;;;;;;5105636;28;20781;-61
2021/07/01 11:22:48;;;;;;;10.20;7.20;;;27.30;65.40;;;;;;5103760;28;20520;-62
2021/07/01 11:25:27;;;;;;;5.70;5.50;;;27.10;67.00;;;;;;5098046;28;20691;-61
2021/07/01 11:28:15;;;;;;;6.10;5.70;;;27.10;65.70;;;;;;5092675;28;20439;-61
2021/07/01 11:30:55;;;;;;;5.40;5.20;;;26.90;65.60;;;;;;5099201;28;20804;-62
2021/07/01 11:33:22;;;;;;;5.70;5.30;;;27.10;66.40;;;;;;5110815;28;20501;-61
2021/07/01 11:36:00;;;;;;;6.30;5.90;;;27.30;66.10;;;;;;5082420;28;20450;-61
2021/07/01 11:38:31;;;;;;;5.83;5.63;;;27.10;67.10;;;;;;5102421;28;20489;-61
2021/07/01 11:41:01;;;;;;;5.50;5.30;;;27.10;66.80;;;;;;5093773;28;20443;-62
2021/07/01 11:43:28;;;;;;;5.87;5.57;;;27.20;66.90;;;;;;5086374;28;20591;-62
2021/07/01 11:45:56;;;;;;;5.30;5.10;;;27.20;64.70;;;;;;5099375;28;20440;-61
2021/07/01 11:48:26;;;;;;;5.57;5.37;;;27.50;64.90;;;;;;5104988;28;20507;-62
2021/07/01 11:50:55;;;;;;;5.77;5.50;;;27.70;64.80;;;;;;5108457;28;20441;-61
2021/07/01 11:53:23;;;;;;;5.67;5.47;;;27.80;63.00;;;;;;5102036;28;20451;-62
2021/07/01 11:55:54;;;;;;;5.77;5.47;;;28.00;63.80;;;;;;5091613;28;20764;-62
2021/07/01 11:58:21;;;;;;;5.30;5.10;;;28.10;64.20;;;;;;5084621;28;20449;-61
2021/07/01 12:00:49;;;;;;;5.10;4.90;;;27.80;63.80;;;;;;5085677;28;20458;-62
2021/07/01 12:03:16;;;;;;;5.80;5.53;;;27.90;63.80;;;;;;5089455;28;20455;-61
2021/07/01 12:05:49;;;;;;;5.23;4.93;;;28.30;61.80;;;;;;5077722;28;20453;-62
2021/07/01 12:08:17;;;;;;;5.43;5.20;;;28.40;60.10;;;;;;5087034;28;20480;-62
2021/07/01 12:10:45;;;;;;;5.10;4.90;;;28.20;63.40;;;;;;5086261;28;20446;-62
2021/07/01 12:13:31;;;;;;;5.27;5.07;;;27.80;65.20;;;;;;5109923;28;20511;-61
2021/07/01 12:16:02;;;;;;;5.30;5.10;;;27.60;66.30;;;;;;5095542;28;20483;-61
2021/07/01 12:18:52;;;;;;;5.30;4.90;;;27.20;66.40;;;;;;5105987;28;20609;-62
2021/07/01 12:21:28;;;;;;;5.80;5.50;;;27.00;66.20;;;;;;5109239;28;20443;-61
2021/07/01 12:23:58;;;;;;;5.60;5.30;;;26.50;67.40;;;;;;5103550;28;20441;-60
2021/07/01 12:26:34;;;;;;;6.10;5.80;;;26.10;68.60;;;;;;5096933;28;20641;-60
2021/07/01 12:29:07;;;;;;;6.53;6.23;;;26.20;70.30;;;;;;5099644;28;20769;-64
2021/07/01 12:31:35;;;;;;;6.00;5.70;;;26.00;72.40;;;;;;5101903;28;20490;-62
2021/07/01 12:34:05;;;;;;;6.40;6.10;;;25.70;72.60;;;;;;5110236;28;21088;-61
2021/07/01 12:36:41;;;;;;;6.43;5.87;;;25.60;71.20;;;;;;5109336;28;20435;-60
2021/07/01 12:39:10;;;;;;;6.20;5.80;;;25.50;71.80;;;;;;5095207;28;20775;-61
2021/07/01 12:41:53;;;;;;;8.73;5.93;;;25.70;72.30;;;;;;5098640;28;20482;-62
2021/07/01 12:44:20;;;;;;;6.20;5.90;;;25.90;71.10;;;;;;5099148;28;20605;-60
2021/07/01 12:46:47;;;;;;;5.80;5.30;;;26.20;68.70;;;;;;5097310;28;20485;-62
2021/07/01 12:49:25;;;;;;;6.10;5.80;;;26.50;69.30;;;;;;5096902;28;20496;-62
2021/07/01 12:52:13;;;;;;;5.83;5.63;;;27.00;69.60;;;;;;5105255;28;20491;-61
2021/07/01 12:54:40;;;;;;;5.90;5.70;;;27.20;68.50;;;;;;5093745;28;20447;-61
2021/07/01 12:57:13;;;;;;;6.30;6.00;;;27.10;66.60;;;;;;5079335;28;20469;-61
2021/07/01 12:59:42;;;;;;;5.87;5.47;;;27.30;66.80;;;;;;5093876;28;20820;-61